Time;durP1;ratioP1;P1;durP2;ratioP2;P2;SDS_P1;SDS_P2;PMS_P1;PMS_P2;Temp;Humidity;BMP_temperature;BMP_pressure;BME280_temperature;BME280_humidity;BME280_pressure;Samples;Min_cycle;Max_cycle;Signal;HPM_P1;HPM_P2
2023/12/08 00:01:21;;;;;;;12.15;11.55;;;;;;;;;;5071960;28;20107;-61
2023/12/08 00:03:46;;;;;;;11.82;11.23;;;;;;;;;;5074979;28;20016;-61
2023/12/08 00:06:12;;;;;;;11.90;11.30;;;;;;;;;;5076188;28;20529;-63
2023/12/08 00:08:37;;;;;;;12.07;11.48;;;;;;;;;;5070543;28;20031;-63
2023/12/08 00:11:03;;;;;;;11.85;11.25;;;;;;;;;;5074027;28;20100;-62
2023/12/08 00:13:28;;;;;;;11.73;11.20;;;;;;;;;;5071460;28;20128;-62
2023/12/08 00:15:53;;;;;;;11.40;10.90;;;;;;;;;;5072732;28;20055;-62
2023/12/08 00:18:19;;;;;;;11.40;10.90;;;;;;;;;;5069887;28;20075;-62
2023/12/08 00:20:45;;;;;;;11.93;11.32;;;;;;;;;;5079256;28;20050;-62
2023/12/08 00:23:11;;;;;;;12.15;11.55;;;;;;;;;;5080432;28;20099;-62
2023/12/08 00:25:36;;;;;;;12.25;11.65;;;;;;;;;;5071498;28;21586;-62
2023/12/08 00:28:03;;;;;;;12.10;11.50;;;;;;;;;;5070841;28;20544;-62
2023/12/08 00:30:29;;;;;;;12.20;11.60;;;;;;;;;;5072606;28;20021;-62
2023/12/08 00:32:54;;;;;;;12.00;11.40;;;;;;;;;;5074253;28;20094;-61
2023/12/08 00:35:21;;;;;;;11.80;11.20;;;;;;;;;;5072261;28;20033;-62
2023/12/08 00:37:46;;;;;;;12.15;11.55;;;;;;;;;;5069012;28;20028;-61
2023/12/08 00:40:12;;;;;;;12.07;11.48;;;;;;;;;;5072629;28;20033;-63
2023/12/08 00:42:37;;;;;;;12.20;11.60;;;;;;;;;;5076748;28;20051;-61
2023/12/08 00:45:03;;;;;;;11.60;11.10;;;;;;;;;;5070711;28;20123;-61
2023/12/08 00:47:28;;;;;;;11.52;11.02;;;;;;;;;;5074941;28;20546;-63
2023/12/08 00:49:54;;;;;;;11.52;11.02;;;;;;;;;;5073446;28;20028;-61
2023/12/08 00:52:19;;;;;;;11.80;11.20;;;;;;;;;;5071840;28;20082;-60
2023/12/08 00:54:44;;;;;;;12.65;11.95;;;;;;;;;;5070982;28;20158;-62
2023/12/08 00:57:10;;;;;;;11.20;10.70;;;;;;;;;;5070410;28;20020;-63
2023/12/08 00:59:35;;;;;;;12.05;11.45;;;;;;;;;;5070079;28;20036;-62
2023/12/08 01:02:01;;;;;;;12.82;12.13;;;;;;;;;;5069184;28;20028;-62
2023/12/08 01:04:27;;;;;;;12.20;11.60;;;;;;;;;;5069300;28;20016;-63
2023/12/08 01:06:52;;;;;;;12.32;11.73;;;;;;;;;;5067631;28;20111;-62
2023/12/08 01:09:17;;;;;;;11.63;11.07;;;;;;;;;;5065780;28;20020;-62
2023/12/08 01:11:43;;;;;;;11.48;10.98;;;;;;;;;;5073421;28;20032;-63
2023/12/08 01:14:08;;;;;;;12.10;11.50;;;;;;;;;;5070017;28;20033;-62
2023/12/08 01:16:37;;;;;;;11.50;11.00;;;;;;;;;;5071139;28;20090;-62
2023/12/08 01:19:02;;;;;;;12.18;11.57;;;;;;;;;;5079047;28;20398;-62
2023/12/08 01:21:28;;;;;;;11.73;11.18;;;;;;;;;;5072444;28;20013;-62
2023/12/08 01:23:53;;;;;;;12.20;11.60;;;;;;;;;;5069659;28;20392;-62
2023/12/08 01:26:18;;;;;;;12.15;11.55;;;;;;;;;;5070972;28;20056;-62
2023/12/08 01:28:44;;;;;;;12.82;12.13;;;;;;;;;;5075340;28;20023;-62
2023/12/08 01:31:09;;;;;;;12.43;11.82;;;;;;;;;;5072009;28;20025;-62
2023/12/08 01:33:35;;;;;;;12.05;11.45;;;;;;;;;;5081362;28;20035;-63
2023/12/08 01:36:00;;;;;;;12.10;11.50;;;;;;;;;;5071765;28;20032;-61
2023/12/08 01:38:25;;;;;;;12.23;11.63;;;;;;;;;;5072195;28;20051;-62
2023/12/08 01:40:51;;;;;;;12.73;12.02;;;;;;;;;;5073543;28;20087;-61
2023/12/08 01:43:17;;;;;;;11.60;11.10;;;;;;;;;;5072667;28;20020;-63
2023/12/08 01:45:42;;;;;;;12.05;11.45;;;;;;;;;;5069287;28;20388;-62
2023/12/08 01:48:07;;;;;;;12.48;11.88;;;;;;;;;;5073977;28;20008;-62
2023/12/08 01:50:33;;;;;;;12.40;11.80;;;;;;;;;;5072101;28;20033;-61
2023/12/08 01:52:59;;;;;;;12.35;11.75;;;;;;;;;;5073687;28;20115;-61
2023/12/08 01:55:24;;;;;;;12.30;11.70;;;;;;;;;;5071531;28;20411;-62
2023/12/08 01:57:50;;;;;;;12.32;11.73;;;;;;;;;;5070495;28;20052;-61
2023/12/08 02:00:15;;;;;;;11.60;11.10;;;;;;;;;;5074135;28;20020;-62
2023/12/08 02:02:43;;;;;;;11.73;11.13;;;;;;;;;;5069106;28;20021;-62
2023/12/08 02:05:09;;;;;;;12.10;11.50;;;;;;;;;;5071894;28;20020;-64
2023/12/08 02:07:35;;;;;;;12.10;11.50;;;;;;;;;;5071633;28;20498;-63
2023/12/08 02:10:00;;;;;;;12.25;11.65;;;;;;;;;;5073314;28;20051;-62
2023/12/08 02:12:26;;;;;;;12.85;12.15;;;;;;;;;;5073269;28;20480;-61
2023/12/08 02:14:51;;;;;;;12.27;11.68;;;;;;;;;;5075014;28;20384;-61
2023/12/08 02:17:19;;;;;;;11.95;11.35;;;;;;;;;;5070989;28;20028;-61
2023/12/08 02:19:46;;;;;;;12.00;11.40;;;;;;;;;;5074820;28;20475;-60
2023/12/08 02:22:12;;;;;;;12.95;12.25;;;;;;;;;;5069636;28;20085;-61
2023/12/08 02:24:37;;;;;;;12.18;11.57;;;;;;;;;;5076079;28;20020;-61
2023/12/08 02:27:02;;;;;;;12.43;11.80;;;;;;;;;;5073816;28;20021;-62
2023/12/08 02:29:28;;;;;;;12.38;11.77;;;;;;;;;;5078934;28;20502;-62
2023/12/08 02:32:05;;;;;;;11.93;11.32;;;;;;;;;;5075500;28;20081;-61
2023/12/08 02:34:31;;;;;;;12.07;11.48;;;;;;;;;;5070747;28;20028;-61
2023/12/08 02:36:58;;;;;;;12.20;11.60;;;;;;;;;;5074352;28;20369;-63
2023/12/08 02:39:24;;;;;;;12.50;11.90;;;;;;;;;;5076678;28;20505;-66
2023/12/08 02:41:50;;;;;;;11.80;11.20;;;;;;;;;;5071400;28;20023;-62
2023/12/08 02:44:15;;;;;;;11.80;11.23;;;;;;;;;;5074996;28;20025;-62
2023/12/08 02:46:41;;;;;;;11.93;11.32;;;;;;;;;;5074073;28;20019;-62
2023/12/08 02:49:07;;;;;;;12.05;11.45;;;;;;;;;;5074708;28;20437;-62
2023/12/08 02:51:32;;;;;;;12.15;11.55;;;;;;;;;;5072932;28;20075;-62
2023/12/08 02:53:57;;;;;;;12.35;11.75;;;;;;;;;;5072292;28;20078;-62
2023/12/08 02:56:23;;;;;;;12.32;11.73;;;;;;;;;;5077583;28;20028;-62
2023/12/08 02:58:48;;;;;;;13.00;12.30;;;;;;;;;;5071694;28;20514;-63
2023/12/08 03:01:14;;;;;;;12.25;11.65;;;;;;;;;;5074767;28;20028;-62
2023/12/08 03:03:40;;;;;;;12.18;11.57;;;;;;;;;;5070920;28;20511;-60
2023/12/08 03:06:05;;;;;;;11.90;11.30;;;;;;;;;;5071646;28;20028;-62
2023/12/08 03:08:30;;;;;;;12.15;11.55;;;;;;;;;;5074629;28;20025;-62
2023/12/08 03:10:56;;;;;;;12.18;11.57;;;;;;;;;;5069094;28;20494;-62
2023/12/08 03:13:22;;;;;;;11.43;10.93;;;;;;;;;;5071807;28;20029;-61
2023/12/08 03:15:48;;;;;;;12.10;11.50;;;;;;;;;;5073361;28;20052;-62
2023/12/08 03:18:13;;;;;;;12.50;11.82;;;;;;;;;;5076177;28;20024;-62
2023/12/08 03:20:38;;;;;;;11.80;11.20;;;;;;;;;;5074012;28;20021;-61
2023/12/08 03:23:04;;;;;;;12.18;11.57;;;;;;;;;;5078696;28;20100;-61
2023/12/08 03:25:29;;;;;;;12.52;11.88;;;;;;;;;;5077628;28;20577;-61
2023/12/08 03:27:54;;;;;;;12.75;12.10;;;;;;;;;;5071301;28;20021;-62
2023/12/08 03:30:19;;;;;;;12.52;11.93;;;;;;;;;;5070525;28;20041;-63
2023/12/08 03:32:45;;;;;;;13.25;12.55;;;;;;;;;;5072939;28;20486;-62
2023/12/08 03:35:10;;;;;;;12.10;11.50;;;;;;;;;;5077309;28;20399;-63
2023/12/08 03:37:35;;;;;;;11.98;11.38;;;;;;;;;;5081526;28;20026;-63
2023/12/08 03:40:01;;;;;;;11.85;11.25;;;;;;;;;;5070550;28;20024;-61
2023/12/08 03:42:27;;;;;;;11.90;11.30;;;;;;;;;;5070959;28;20078;-62
2023/12/08 03:44:52;;;;;;;13.10;12.40;;;;;;;;;;5074568;28;20408;-62
2023/12/08 03:47:18;;;;;;;12.40;11.80;;;;;;;;;;5073717;28;20025;-61
2023/12/08 03:49:44;;;;;;;12.00;11.40;;;;;;;;;;5069832;28;20052;-62
2023/12/08 03:52:09;;;;;;;12.10;11.50;;;;;;;;;;5072397;28;20062;-63
2023/12/08 03:54:34;;;;;;;12.50;11.80;;;;;;;;;;5071638;28;20414;-63
2023/12/08 03:56:59;;;;;;;11.95;11.35;;;;;;;;;;5071753;28;20033;-63
2023/12/08 03:59:25;;;;;;;12.07;11.48;;;;;;;;;;5074669;28;20036;-62
2023/12/08 04:01:53;;;;;;;11.90;11.30;;;;;;;;;;5070871;28;20074;-62
2023/12/08 04:04:18;;;;;;;13.40;12.68;;;;;;;;;;5067696;28;20056;-63
2023/12/08 04:06:44;;;;;;;12.20;11.60;;;;;;;;;;5060949;28;20055;-61
2023/12/08 04:09:09;;;;;;;12.52;11.93;;;;;;;;;;5067686;28;20564;-63
2023/12/08 04:11:34;;;;;;;12.15;11.55;;;;;;;;;;5073707;28;20487;-63
2023/12/08 04:14:00;;;;;;;13.02;12.32;;;;;;;;;;5071708;28;20408;-63
2023/12/08 04:16:25;;;;;;;12.18;11.57;;;;;;;;;;5070254;28;20416;-62
2023/12/08 04:18:50;;;;;;;12.73;12.02;;;;;;;;;;5075014;28;20387;-62
2023/12/08 04:21:19;;;;;;;13.02;12.32;;;;;;;;;;5066839;28;20089;-63
2023/12/08 04:23:44;;;;;;;12.60;11.93;;;;;;;;;;5073267;28;20031;-63
2023/12/08 04:26:10;;;;;;;12.35;11.75;;;;;;;;;;5080825;28;20423;-62
2023/12/08 04:28:35;;;;;;;11.65;11.10;;;;;;;;;;5072656;28;20051;-61
2023/12/08 04:31:00;;;;;;;12.20;11.60;;;;;;;;;;5070063;28;20067;-62
2023/12/08 04:33:26;;;;;;;12.35;11.75;;;;;;;;;;5073340;28;20051;-63
2023/12/08 04:35:51;;;;;;;12.50;11.90;;;;;;;;;;5078129;28;20024;-61
2023/12/08 04:38:16;;;;;;;12.25;11.65;;;;;;;;;;5073833;28;20020;-62
2023/12/08 04:40:42;;;;;;;12.65;11.95;;;;;;;;;;5071332;28;20024;-62
2023/12/08 04:43:07;;;;;;;11.65;11.05;;;;;;;;;;5072548;28;20031;-62
2023/12/08 04:45:32;;;;;;;11.85;11.25;;;;;;;;;;5075067;28;20484;-63
2023/12/08 04:47:58;;;;;;;12.65;11.98;;;;;;;;;;5075279;28;20074;-63
2023/12/08 04:50:23;;;;;;;12.88;12.18;;;;;;;;;;5073074;28;20478;-61
2023/12/08 04:52:48;;;;;;;12.40;11.80;;;;;;;;;;5070969;28;20490;-61
2023/12/08 04:55:14;;;;;;;12.40;11.80;;;;;;;;;;5072989;28;20538;-62
2023/12/08 04:57:39;;;;;;;12.80;12.10;;;;;;;;;;5069625;28;20029;-63
2023/12/08 05:00:05;;;;;;;11.90;11.30;;;;;;;;;;5065363;28;20029;-62
2023/12/08 05:02:30;;;;;;;11.85;11.25;;;;;;;;;;5070075;28;20025;-63
2023/12/08 05:04:56;;;;;;;11.77;11.18;;;;;;;;;;5068570;28;20062;-62
2023/12/08 05:07:21;;;;;;;12.80;12.10;;;;;;;;;;5067470;28;20051;-62
2023/12/08 05:09:46;;;;;;;12.63;11.98;;;;;;;;;;5070802;28;20020;-61
2023/12/08 05:12:12;;;;;;;12.05;11.45;;;;;;;;;;5071623;28;20029;-63
2023/12/08 05:14:37;;;;;;;13.32;12.63;;;;;;;;;;5070229;28;20020;-63
2023/12/08 05:17:02;;;;;;;12.23;11.63;;;;;;;;;;5069028;28;20031;-62
2023/12/08 05:19:28;;;;;;;12.00;11.40;;;;;;;;;;5065705;28;20032;-63
2023/12/08 05:21:55;;;;;;;14.05;13.25;;;;;;;;;;5063879;28;20251;-63
2023/12/08 05:24:20;;;;;;;13.30;12.60;;;;;;;;;;5070805;28;20120;-62
2023/12/08 05:26:46;;;;;;;12.63;12.00;;;;;;;;;;5071853;28;20108;-62
2023/12/08 05:29:11;;;;;;;12.85;12.15;;;;;;;;;;5074283;28;20028;-63
2023/12/08 05:31:37;;;;;;;12.43;11.82;;;;;;;;;;5071606;28;20080;-63
2023/12/08 05:34:02;;;;;;;12.18;11.57;;;;;;;;;;5066800;28;20032;-64
2023/12/08 05:36:28;;;;;;;13.40;12.68;;;;;;;;;;5072512;28;20032;-63
2023/12/08 05:38:53;;;;;;;14.10;13.30;;;;;;;;;;5070426;28;20029;-63
2023/12/08 05:41:18;;;;;;;13.93;13.13;;;;;;;;;;5074923;28;20020;-62
2023/12/08 05:43:44;;;;;;;13.02;12.32;;;;;;;;;;5075910;28;20475;-62
2023/12/08 05:46:09;;;;;;;13.68;12.88;;;;;;;;;;5076850;28;20020;-61
2023/12/08 05:48:34;;;;;;;13.35;12.65;;;;;;;;;;5075749;28;20116;-62
2023/12/08 05:51:00;;;;;;;14.00;13.20;;;;;;;;;;5080856;28;20440;-63
2023/12/08 05:53:25;;;;;;;13.73;12.93;;;;;;;;;;5079465;28;20031;-62
2023/12/08 05:55:50;;;;;;;13.82;13.02;;;;;;;;;;5070401;28;20034;-61
2023/12/08 05:58:16;;;;;;;13.75;12.95;;;;;;;;;;5068322;28;20105;-65
2023/12/08 06:00:41;;;;;;;12.13;11.52;;;;;;;;;;5070005;28;20399;-65
2023/12/08 06:03:07;;;;;;;13.05;12.35;;;;;;;;;;5072192;28;20020;-62
2023/12/08 06:05:32;;;;;;;12.80;12.10;;;;;;;;;;5074314;28;20780;-63
2023/12/08 06:07:57;;;;;;;11.95;11.35;;;;;;;;;;5072916;28;20021;-63
2023/12/08 06:10:23;;;;;;;13.27;12.57;;;;;;;;;;5073861;28;20035;-63
2023/12/08 06:12:49;;;;;;;12.30;11.70;;;;;;;;;;5077335;28;20069;-63
2023/12/08 06:15:14;;;;;;;14.57;13.68;;;;;;;;;;5073903;28;20044;-63
2023/12/08 06:17:40;;;;;;;12.57;11.98;;;;;;;;;;5073713;28;20032;-61
2023/12/08 06:20:08;;;;;;;12.20;11.60;;;;;;;;;;5077088;28;20446;-62
2023/12/08 06:22:34;;;;;;;13.55;12.75;;;;;;;;;;5075782;28;20028;-62
2023/12/08 06:24:59;;;;;;;12.30;11.70;;;;;;;;;;5074241;28;20040;-61
2023/12/08 06:27:24;;;;;;;13.68;12.88;;;;;;;;;;5076269;28;20023;-63
2023/12/08 06:29:52;;;;;;;12.40;11.75;;;;;;;;;;5071469;28;20017;-59
2023/12/08 06:32:18;;;;;;;12.98;12.27;;;;;;;;;;5070574;28;20044;-62
2023/12/08 06:34:44;;;;;;;12.73;12.02;;;;;;;;;;5072537;28;20047;-63
2023/12/08 06:37:09;;;;;;;13.07;12.38;;;;;;;;;;5077843;28;20019;-63
2023/12/08 06:39:35;;;;;;;12.88;12.18;;;;;;;;;;5074324;28;20418;-61
2023/12/08 06:42:00;;;;;;;12.55;11.85;;;;;;;;;;5079532;28;20108;-62
2023/12/08 06:44:29;;;;;;;12.13;11.52;;;;;;;;;;5079339;28;20047;-62
2023/12/08 06:46:54;;;;;;;12.48;11.82;;;;;;;;;;5073874;28;20024;-61
2023/12/08 06:49:19;;;;;;;12.40;11.80;;;;;;;;;;5073733;28;20020;-61
2023/12/08 06:51:45;;;;;;;12.25;11.65;;;;;;;;;;5074785;28;20025;-63
2023/12/08 06:54:10;;;;;;;12.38;11.77;;;;;;;;;;5072471;28;20096;-62
2023/12/08 06:56:39;;;;;;;12.43;11.80;;;;;;;;;;5073590;28;20036;-62
2023/12/08 06:59:05;;;;;;;12.07;11.48;;;;;;;;;;5070230;28;20028;-62
2023/12/08 07:01:30;;;;;;;12.63;11.93;;;;;;;;;;5075217;28;20141;-62
2023/12/08 07:03:55;;;;;;;12.25;11.65;;;;;;;;;;5070790;28;20043;-63
2023/12/08 07:06:22;;;;;;;12.65;11.95;;;;;;;;;;5071993;28;20024;-63
2023/12/08 07:08:47;;;;;;;12.18;11.57;;;;;;;;;;5073612;28;20107;-63
2023/12/08 07:11:13;;;;;;;12.23;11.63;;;;;;;;;;5075557;28;20108;-60
2023/12/08 07:13:38;;;;;;;12.88;12.18;;;;;;;;;;5077345;28;20476;-62
2023/12/08 07:16:05;;;;;;;11.98;11.38;;;;;;;;;;5074817;28;20507;-62
2023/12/08 07:18:30;;;;;;;15.82;14.80;;;;;;;;;;5069913;28;20032;-64
2023/12/08 07:20:56;;;;;;;13.38;12.65;;;;;;;;;;5058608;28;20033;-63
2023/12/08 07:23:21;;;;;;;12.88;12.18;;;;;;;;;;5065920;28;20028;-66
2023/12/08 07:25:46;;;;;;;12.50;11.88;;;;;;;;;;5065114;28;20054;-67
2023/12/08 07:28:12;;;;;;;12.50;11.90;;;;;;;;;;5062528;28;20039;-65
2023/12/08 07:30:37;;;;;;;12.93;12.23;;;;;;;;;;5064963;28;21000;-68
2023/12/08 07:33:03;;;;;;;14.68;13.80;;;;;;;;;;5064617;28;20029;-67
2023/12/08 07:35:29;;;;;;;14.02;13.23;;;;;;;;;;5060204;28;20032;-65
2023/12/08 07:37:55;;;;;;;13.50;12.75;;;;;;;;;;5066038;28;20125;-65
2023/12/08 07:40:20;;;;;;;13.25;12.55;;;;;;;;;;5063979;28;20017;-64
2023/12/08 07:42:45;;;;;;;13.27;12.57;;;;;;;;;;5067191;28;20494;-65
2023/12/08 07:45:11;;;;;;;13.68;12.88;;;;;;;;;;5062906;28;20086;-66
2023/12/08 07:47:37;;;;;;;12.48;11.85;;;;;;;;;;5066306;28;20029;-67
2023/12/08 07:50:05;;;;;;;13.63;12.82;;;;;;;;;;5063325;28;20020;-67
2023/12/08 07:52:31;;;;;;;13.00;12.30;;;;;;;;;;5058262;28;20044;-67
2023/12/08 07:54:57;;;;;;;12.32;11.73;;;;;;;;;;5067539;28;20020;-67
2023/12/08 07:57:22;;;;;;;12.60;11.90;;;;;;;;;;5060212;28;20091;-66
2023/12/08 07:59:47;;;;;;;12.60;11.95;;;;;;;;;;5063652;28;20388;-68
2023/12/08 08:02:14;;;;;;;12.52;11.88;;;;;;;;;;5059392;28;20058;-68
2023/12/08 08:04:39;;;;;;;12.85;12.15;;;;;;;;;;5062509;28;20115;-67
2023/12/08 08:07:04;;;;;;;12.57;11.88;;;;;;;;;;5062960;28;20590;-69
2023/12/08 08:09:30;;;;;;;13.85;13.05;;;;;;;;;;5062246;28;20024;-67
2023/12/08 08:11:55;;;;;;;13.05;12.35;;;;;;;;;;5063069;28;20057;-67
2023/12/08 08:14:20;;;;;;;14.35;13.48;;;;;;;;;;5062985;28;20369;-68
2023/12/08 08:16:46;;;;;;;13.18;12.45;;;;;;;;;;5067092;28;20079;-66
2023/12/08 08:19:11;;;;;;;12.10;11.50;;;;;;;;;;5072278;28;20067;-66
2023/12/08 08:21:37;;;;;;;12.80;12.10;;;;;;;;;;5059059;28;20020;-66
2023/12/08 08:24:02;;;;;;;12.43;11.82;;;;;;;;;;5071145;28;20506;-67
2023/12/08 08:26:27;;;;;;;12.45;11.85;;;;;;;;;;5063310;28;20020;-67
2023/12/08 08:28:53;;;;;;;14.10;13.30;;;;;;;;;;5062236;28;20024;-68
2023/12/08 08:31:18;;;;;;;13.52;12.75;;;;;;;;;;5063322;28;20035;-66
2023/12/08 08:33:44;;;;;;;13.65;12.95;;;;;;;;;;5060518;28;20487;-68
2023/12/08 08:36:11;;;;;;;12.35;11.75;;;;;;;;;;5061972;28;20070;-66
2023/12/08 08:38:36;;;;;;;12.77;12.07;;;;;;;;;;5062422;28;20056;-65
2023/12/08 08:41:03;;;;;;;11.65;11.05;;;;;;;;;;5060743;28;20047;-67
2023/12/08 08:43:28;;;;;;;13.68;12.88;;;;;;;;;;5059942;28;20078;-66
2023/12/08 08:45:53;;;;;;;11.80;11.20;;;;;;;;;;5059968;28;20030;-65
2023/12/08 08:48:19;;;;;;;12.40;11.75;;;;;;;;;;5057821;28;20077;-67
2023/12/08 08:50:44;;;;;;;13.95;13.15;;;;;;;;;;5064199;28;20020;-69
2023/12/08 08:53:09;;;;;;;12.40;11.80;;;;;;;;;;5063223;28;20033;-68
2023/12/08 08:55:35;;;;;;;12.77;12.07;;;;;;;;;;5064252;28;20119;-71
2023/12/08 08:58:00;;;;;;;13.25;12.52;;;;;;;;;;5065322;28;20067;-67
2023/12/08 09:00:26;;;;;;;12.70;12.02;;;;;;;;;;5067901;28;21343;-68
2023/12/08 09:02:51;;;;;;;12.57;11.93;;;;;;;;;;5060529;28;20464;-64
2023/12/08 09:05:17;;;;;;;13.05;12.35;;;;;;;;;;5060086;28;20111;-66
2023/12/08 09:07:43;;;;;;;13.32;12.63;;;;;;;;;;5064365;28;20124;-69
2023/12/08 09:10:08;;;;;;;12.43;11.82;;;;;;;;;;5065177;28;20471;-67
2023/12/08 09:12:34;;;;;;;12.70;12.02;;;;;;;;;;5059771;28;20024;-66
2023/12/08 09:14:59;;;;;;;14.93;14.02;;;;;;;;;;5063754;28;20629;-66
2023/12/08 09:17:24;;;;;;;12.55;11.90;;;;;;;;;;5067209;28;20132;-66
2023/12/08 09:19:50;;;;;;;13.32;12.63;;;;;;;;;;5070996;28;20100;-67
2023/12/08 09:22:15;;;;;;;13.07;12.38;;;;;;;;;;5067044;28;20032;-67
2023/12/08 09:24:40;;;;;;;15.13;14.20;;;;;;;;;;5067872;28;20031;-68
2023/12/08 09:27:05;;;;;;;13.73;12.98;;;;;;;;;;5067581;28;20039;-67
2023/12/08 09:29:31;;;;;;;12.45;11.80;;;;;;;;;;5063893;28;20028;-65
2023/12/08 09:31:56;;;;;;;12.20;11.60;;;;;;;;;;5073216;28;20020;-67
2023/12/08 09:34:21;;;;;;;11.93;11.32;;;;;;;;;;5067369;28;20380;-65
2023/12/08 09:36:47;;;;;;;12.70;12.02;;;;;;;;;;5071684;28;20039;-67
2023/12/08 09:39:12;;;;;;;11.90;11.30;;;;;;;;;;5068223;28;20027;-67
2023/12/08 09:41:39;;;;;;;12.57;11.95;;;;;;;;;;5070040;28;20029;-66
2023/12/08 09:44:14;;;;;;;12.88;12.18;;;;;;;;;;5068715;28;20009;-69
2023/12/08 09:46:42;;;;;;;12.52;11.90;;;;;;;;;;5067398;28;20055;-67
2023/12/08 09:49:12;;;;;;;12.77;12.13;;;;;;;;;;5064438;28;20032;-69
2023/12/08 09:51:37;;;;;;;13.02;12.32;;;;;;;;;;5070421;28;20032;-68
2023/12/08 09:54:03;;;;;;;12.35;11.75;;;;;;;;;;5067760;28;20375;-62
2023/12/08 09:56:29;;;;;;;13.00;12.30;;;;;;;;;;5066521;28;20020;-68
2023/12/08 09:58:54;;;;;;;12.77;12.10;;;;;;;;;;5064219;28;20016;-68
2023/12/08 10:01:20;;;;;;;12.43;11.82;;;;;;;;;;5069938;28;20090;-69
2023/12/08 10:03:45;;;;;;;12.90;12.20;;;;;;;;;;5068502;28;20020;-67
2023/12/08 10:06:12;;;;;;;13.00;12.30;;;;;;;;;;5064651;28;20087;-68
2023/12/08 10:08:37;;;;;;;12.80;12.18;;;;;;;;;;5067077;28;20032;-67
2023/12/08 10:11:04;;;;;;;12.23;11.63;;;;;;;;;;5080394;28;20470;-67
2023/12/08 10:13:30;;;;;;;12.63;12.02;;;;;;;;;;5065742;28;20062;-71
2023/12/08 10:15:55;;;;;;;12.65;12.05;;;;;;;;;;5069834;28;20048;-69
2023/12/08 10:18:22;;;;;;;13.10;12.40;;;;;;;;;;5065657;28;20032;-71
2023/12/08 10:20:47;;;;;;;15.02;14.13;;;;;;;;;;5064184;28;20222;-70
2023/12/08 10:23:18;;;;;;;13.32;12.63;;;;;;;;;;5062854;28;20020;-67
2023/12/08 10:25:44;;;;;;;12.80;12.15;;;;;;;;;;5062241;28;20082;-69
2023/12/08 10:28:10;;;;;;;15.70;14.70;;;;;;;;;;5065810;28;20483;-70
2023/12/08 10:30:35;;;;;;;12.98;12.27;;;;;;;;;;5065420;28;20029;-68
2023/12/08 10:33:02;;;;;;;12.23;11.63;;;;;;;;;;5066364;28;20029;-68
2023/12/08 10:35:27;;;;;;;13.10;12.40;;;;;;;;;;5065221;28;20031;-67
2023/12/08 10:37:53;;;;;;;13.40;12.70;;;;;;;;;;5065958;28;22628;-67
2023/12/08 10:40:18;;;;;;;13.80;13.00;;;;;;;;;;5061640;28;20032;-66
2023/12/08 10:42:49;;;;;;;14.00;13.20;;;;;;;;;;5069618;28;20027;-66
2023/12/08 10:45:15;;;;;;;13.23;12.52;;;;;;;;;;5060844;28;20167;-69
2023/12/08 10:47:41;;;;;;;13.18;12.48;;;;;;;;;;5061710;28;20546;-67
2023/12/08 10:50:08;;;;;;;13.70;12.90;;;;;;;;;;5060962;28;20025;-67
2023/12/08 10:52:33;;;;;;;12.88;12.18;;;;;;;;;;5066049;28;20024;-67
2023/12/08 10:54:59;;;;;;;13.05;12.35;;;;;;;;;;5062369;28;20425;-68
2023/12/08 10:57:25;;;;;;;13.25;12.55;;;;;;;;;;5063294;28;20036;-67
2023/12/08 10:59:52;;;;;;;13.63;12.88;;;;;;;;;;5066570;28;20036;-69
2023/12/08 11:02:21;;;;;;;13.50;12.80;;;;;;;;;;5066091;28;20021;-68
2023/12/08 11:04:53;;;;;;;13.88;13.07;;;;;;;;;;5073919;28;20015;-68
2023/12/08 11:07:21;;;;;;;13.35;12.65;;;;;;;;;;5067345;28;20107;-69
2023/12/08 11:09:48;;;;;;;13.93;13.13;;;;;;;;;;5063834;28;20055;-69
2023/12/08 11:12:15;;;;;;;12.77;12.07;;;;;;;;;;5066067;28;20021;-69
2023/12/08 11:15:04;;;;;;;13.88;13.07;;;;;;;;;;5064154;28;20028;-66
2023/12/08 11:17:48;;;;;;;13.40;12.70;;;;;;;;;;5070478;28;20072;-68
2023/12/08 11:20:14;;;;;;;12.93;12.23;;;;;;;;;;5070356;28;20024;-68
2023/12/08 11:22:39;;;;;;;14.13;13.32;;;;;;;;;;5056246;28;20074;-68
2023/12/08 11:25:07;;;;;;;13.00;12.30;;;;;;;;;;5061269;28;20036;-68
2023/12/08 11:27:49;;;;;;;13.20;12.50;;;;;;;;;;5064716;28;20085;-69
2023/12/08 11:30:33;;;;;;;13.30;12.60;;;;;;;;;;5062727;28;20058;-69
2023/12/08 11:32:58;;;;;;;13.23;12.52;;;;;;;;;;5063167;28;20043;-67
2023/12/08 11:35:23;;;;;;;13.88;13.07;;;;;;;;;;5064690;28;20032;-68
2023/12/08 11:37:49;;;;;;;13.60;12.90;;;;;;;;;;5064999;28;20434;-69
2023/12/08 11:40:15;;;;;;;14.93;14.02;;;;;;;;;;5068329;28;20071;-67
2023/12/08 11:42:42;;;;;;;13.10;12.40;;;;;;;;;;5064021;28;20567;-69
2023/12/08 11:45:08;;;;;;;13.00;12.30;;;;;;;;;;5066845;28;21502;-66
2023/12/08 11:47:34;;;;;;;12.85;12.20;;;;;;;;;;5067834;28;20021;-69
2023/12/08 11:50:01;;;;;;;12.95;12.25;;;;;;;;;;5068496;28;20032;-69
2023/12/08 11:52:27;;;;;;;13.48;12.77;;;;;;;;;;5064655;28;20435;-68
2023/12/08 11:54:58;;;;;;;12.20;11.60;;;;;;;;;;5071033;28;20075;-67
2023/12/08 11:57:24;;;;;;;12.63;12.02;;;;;;;;;;5068184;28;20487;-69
2023/12/08 11:59:49;;;;;;;12.38;11.77;;;;;;;;;;5063771;28;20040;-68
2023/12/08 12:02:15;;;;;;;13.07;12.38;;;;;;;;;;5066012;28;20047;-68
2023/12/08 12:04:40;;;;;;;13.68;12.88;;;;;;;;;;5064798;28;20070;-67
2023/12/08 12:07:08;;;;;;;14.00;13.20;;;;;;;;;;5061195;28;20044;-68
2023/12/08 12:09:33;;;;;;;13.45;12.75;;;;;;;;;;5067901;28;20029;-69
2023/12/08 12:12:01;;;;;;;14.32;13.52;;;;;;;;;;5065799;28;20100;-68
2023/12/08 12:14:29;;;;;;;15.75;14.75;;;;;;;;;;5066657;28;20029;-69
2023/12/08 12:16:54;;;;;;;13.23;12.52;;;;;;;;;;5069377;28;20511;-69
2023/12/08 12:19:19;;;;;;;13.27;12.57;;;;;;;;;;5064217;28;20036;-66
2023/12/08 12:21:45;;;;;;;13.18;12.48;;;;;;;;;;5068638;28;20025;-69
2023/12/08 12:24:10;;;;;;;13.52;12.82;;;;;;;;;;5068258;28;20594;-68
2023/12/08 12:26:35;;;;;;;13.13;12.43;;;;;;;;;;5068686;28;20020;-68
2023/12/08 12:29:01;;;;;;;14.93;14.02;;;;;;;;;;5061563;28;20032;-68
2023/12/08 12:31:26;;;;;;;12.98;12.27;;;;;;;;;;5062976;28;20029;-68
2023/12/08 12:33:51;;;;;;;12.95;12.25;;;;;;;;;;5070876;28;20434;-66
2023/12/08 12:36:17;;;;;;;13.85;13.05;;;;;;;;;;5057697;28;20756;-67
2023/12/08 12:38:42;;;;;;;13.77;12.98;;;;;;;;;;5065854;28;20028;-69
2023/12/08 12:41:23;;;;;;;13.38;12.68;;;;;;;;;;5056017;28;20472;-68
2023/12/08 12:43:58;;;;;;;13.15;12.45;;;;;;;;;;5056801;28;20028;-66
2023/12/08 12:46:25;;;;;;;13.80;13.02;;;;;;;;;;5061880;28;20048;-67
2023/12/08 12:48:52;;;;;;;14.02;13.23;;;;;;;;;;5066596;28;20036;-67
2023/12/08 12:51:37;;;;;;;13.13;12.43;;;;;;;;;;5058905;28;20078;-68
2023/12/08 12:54:03;;;;;;;13.15;12.45;;;;;;;;;;5061407;28;20037;-69
2023/12/08 12:56:29;;;;;;;12.52;11.93;;;;;;;;;;5064986;28;20077;-70
2023/12/08 12:59:01;;;;;;;13.90;13.10;;;;;;;;;;5066630;28;20480;-69
2023/12/08 13:01:26;;;;;;;13.15;12.45;;;;;;;;;;5059339;28;20045;-67
2023/12/08 13:03:53;;;;;;;14.18;13.38;;;;;;;;;;5060176;28;20070;-69
2023/12/08 13:06:26;;;;;;;13.98;13.18;;;;;;;;;;5069545;28;20726;-70
2023/12/08 13:08:52;;;;;;;12.90;12.20;;;;;;;;;;5066473;28;20044;-69
2023/12/08 13:11:17;;;;;;;13.90;13.10;;;;;;;;;;5058378;28;20020;-69
2023/12/08 13:13:42;;;;;;;13.20;12.50;;;;;;;;;;5063929;28;20029;-69
2023/12/08 13:16:08;;;;;;;12.32;11.73;;;;;;;;;;5057010;28;20053;-69
2023/12/08 13:18:33;;;;;;;12.30;11.70;;;;;;;;;;5065175;28;20404;-67
2023/12/08 13:20:59;;;;;;;12.45;11.85;;;;;;;;;;5067167;28;20357;-64
2023/12/08 13:23:24;;;;;;;11.82;11.23;;;;;;;;;;5067471;28;20033;-66
2023/12/08 13:25:49;;;;;;;14.57;13.70;;;;;;;;;;5070831;28;20039;-66
2023/12/08 13:28:15;;;;;;;12.93;12.23;;;;;;;;;;5070080;28;20489;-64
2023/12/08 13:30:40;;;;;;;15.10;14.18;;;;;;;;;;5073106;28;20036;-66
2023/12/08 13:33:06;;;;;;;12.35;11.75;;;;;;;;;;5074076;28;20033;-64
2023/12/08 13:35:31;;;;;;;12.73;12.02;;;;;;;;;;5068642;28;20127;-66
2023/12/08 13:37:56;;;;;;;13.52;12.75;;;;;;;;;;5069548;28;20483;-65
2023/12/08 13:40:25;;;;;;;13.20;12.50;;;;;;;;;;5072139;28;20060;-65
2023/12/08 13:42:52;;;;;;;12.93;12.23;;;;;;;;;;5072169;28;20426;-66
2023/12/08 13:45:18;;;;;;;12.90;12.20;;;;;;;;;;5073827;28;20158;-65
2023/12/08 13:47:43;;;;;;;12.75;12.07;;;;;;;;;;5070039;28;20154;-66
2023/12/08 13:50:08;;;;;;;13.98;13.18;;;;;;;;;;5069156;28;20028;-65
2023/12/08 13:52:34;;;;;;;12.07;11.48;;;;;;;;;;5072521;28;20414;-66
2023/12/08 13:55:00;;;;;;;13.00;12.30;;;;;;;;;;5078090;28;20032;-64
2023/12/08 13:57:25;;;;;;;14.00;13.20;;;;;;;;;;5072878;28;20024;-65
2023/12/08 13:59:51;;;;;;;13.05;12.35;;;;;;;;;;5072163;28;20032;-65
2023/12/08 14:02:17;;;;;;;13.77;12.98;;;;;;;;;;5073603;28;20024;-65
2023/12/08 14:04:42;;;;;;;13.90;13.10;;;;;;;;;;5077817;28;20449;-65
2023/12/08 14:07:08;;;;;;;13.90;13.10;;;;;;;;;;5074710;28;20024;-65
2023/12/08 14:09:34;;;;;;;13.60;12.85;;;;;;;;;;5079906;28;20032;-65